sensor_id;sensor_type;location;lat;lon;timestamp;P1;durP1;ratioP1;P2;durP2;ratioP2
20008;SDS011;10165;42.662;23.260;2022-12-07T00:01:31;26.87;;;13.07;;
20008;SDS011;10165;42.662;23.260;2022-12-07T00:04:00;26.93;;;14.03;;
20008;SDS011;10165;42.662;23.260;2022-12-07T00:06:32;32.63;;;14.73;;
20008;SDS011;10165;42.662;23.260;2022-12-07T00:09:06;27.27;;;12.53;;
20008;SDS011;10165;42.662;23.260;2022-12-07T00:11:35;33.67;;;14.33;;
20008;SDS011;10165;42.662;23.260;2022-12-07T00:14:03;27.63;;;13.10;;
20008;SDS011;10165;42.662;23.260;2022-12-07T00:16:34;27.13;;;13.50;;
20008;SDS011;10165;42.662;23.260;2022-12-07T00:19:01;26.70;;;13.40;;
20008;SDS011;10165;42.662;23.260;2022-12-07T00:21:33;20.97;;;12.70;;
20008;SDS011;10165;42.662;23.260;2022-12-07T00:24:01;29.30;;;14.37;;
20008;SDS011;10165;42.662;23.260;2022-12-07T00:26:36;26.50;;;14.20;;
20008;SDS011;10165;42.662;23.260;2022-12-07T00:29:06;27.03;;;14.23;;
20008;SDS011;10165;42.662;23.260;2022-12-07T00:31:36;26.87;;;13.43;;
20008;SDS011;10165;42.662;23.260;2022-12-07T00:34:05;33.40;;;14.23;;
20008;SDS011;10165;42.662;23.260;2022-12-07T00:36:33;28.00;;;13.70;;
20008;SDS011;10165;42.662;23.260;2022-12-07T00:39:01;29.87;;;13.47;;
20008;SDS011;10165;42.662;23.260;2022-12-07T00:41:28;35.67;;;14.63;;
20008;SDS011;10165;42.662;23.260;2022-12-07T00:43:56;29.13;;;13.40;;
20008;SDS011;10165;42.662;23.260;2022-12-07T00:46:23;29.10;;;15.67;;
20008;SDS011;10165;42.662;23.260;2022-12-07T00:48:51;26.80;;;14.83;;
20008;SDS011;10165;42.662;23.260;2022-12-07T00:51:20;27.53;;;14.20;;
20008;SDS011;10165;42.662;23.260;2022-12-07T00:53:48;29.10;;;14.00;;
20008;SDS011;10165;42.662;23.260;2022-12-07T00:56:22;28.37;;;13.67;;
20008;SDS011;10165;42.662;23.260;2022-12-07T00:58:54;24.53;;;12.40;;
20008;SDS011;10165;42.662;23.260;2022-12-07T01:01:22;26.70;;;14.10;;
20008;SDS011;10165;42.662;23.260;2022-12-07T01:03:50;27.93;;;13.37;;
20008;SDS011;10165;42.662;23.260;2022-12-07T01:06:18;34.83;;;14.90;;
20008;SDS011;10165;42.662;23.260;2022-12-07T01:08:46;33.70;;;16.67;;
20008;SDS011;10165;42.662;23.260;2022-12-07T01:11:14;36.30;;;15.73;;
20008;SDS011;10165;42.662;23.260;2022-12-07T01:13:42;30.50;;;15.40;;
20008;SDS011;10165;42.662;23.260;2022-12-07T01:16:11;23.43;;;13.83;;
20008;SDS011;10165;42.662;23.260;2022-12-07T01:18:40;27.13;;;12.93;;
20008;SDS011;10165;42.662;23.260;2022-12-07T01:21:14;27.10;;;14.10;;
20008;SDS011;10165;42.662;23.260;2022-12-07T01:23:42;27.17;;;13.00;;
20008;SDS011;10165;42.662;23.260;2022-12-07T01:26:11;27.17;;;13.37;;
20008;SDS011;10165;42.662;23.260;2022-12-07T01:28:39;25.67;;;13.80;;
20008;SDS011;10165;42.662;23.260;2022-12-07T01:31:11;28.70;;;12.97;;
20008;SDS011;10165;42.662;23.260;2022-12-07T01:33:42;25.37;;;13.07;;
20008;SDS011;10165;42.662;23.260;2022-12-07T01:36:18;25.20;;;12.90;;
20008;SDS011;10165;42.662;23.260;2022-12-07T01:38:45;29.20;;;14.20;;
20008;SDS011;10165;42.662;23.260;2022-12-07T01:54:20;33.43;;;17.67;;
20008;SDS011;10165;42.662;23.260;2022-12-07T01:56:51;27.63;;;14.90;;
20008;SDS011;10165;42.662;23.260;2022-12-07T01:59:21;30.20;;;14.33;;
20008;SDS011;10165;42.662;23.260;2022-12-07T02:01:52;26.27;;;13.47;;
20008;SDS011;10165;42.662;23.260;2022-12-07T02:04:21;26.23;;;13.87;;
20008;SDS011;10165;42.662;23.260;2022-12-07T02:06:48;25.67;;;13.47;;
20008;SDS011;10165;42.662;23.260;2022-12-07T02:09:17;25.90;;;13.17;;
20008;SDS011;10165;42.662;23.260;2022-12-07T02:11:43;24.13;;;13.30;;
20008;SDS011;10165;42.662;23.260;2022-12-07T02:14:10;20.83;;;12.17;;
20008;SDS011;10165;42.662;23.260;2022-12-07T02:16:40;23.93;;;12.83;;
20008;SDS011;10165;42.662;23.260;2022-12-07T02:21:59;29.23;;;12.97;;
20008;SDS011;10165;42.662;23.260;2022-12-07T02:24:57;23.73;;;14.33;;
20008;SDS011;10165;42.662;23.260;2022-12-07T02:27:37;24.77;;;13.10;;
20008;SDS011;10165;42.662;23.260;2022-12-07T02:30:10;22.70;;;12.67;;
20008;SDS011;10165;42.662;23.260;2022-12-07T02:33:00;24.50;;;12.57;;
20008;SDS011;10165;42.662;23.260;2022-12-07T02:35:39;25.20;;;12.90;;
20008;SDS011;10165;42.662;23.260;2022-12-07T02:38:26;28.30;;;13.50;;
20008;SDS011;10165;42.662;23.260;2022-12-07T02:43:53;33.97;;;14.17;;
20008;SDS011;10165;42.662;23.260;2022-12-07T02:46:25;28.63;;;12.77;;
20008;SDS011;10165;42.662;23.260;2022-12-07T02:48:56;24.80;;;12.93;;
20008;SDS011;10165;42.662;23.260;2022-12-07T02:51:25;26.60;;;14.00;;
20008;SDS011;10165;42.662;23.260;2022-12-07T02:53:56;27.73;;;13.80;;
20008;SDS011;10165;42.662;23.260;2022-12-07T02:56:39;29.30;;;13.87;;
20008;SDS011;10165;42.662;23.260;2022-12-07T03:02:28;23.40;;;11.07;;
20008;SDS011;10165;42.662;23.260;2022-12-07T03:07:39;25.17;;;12.53;;
20008;SDS011;10165;42.662;23.260;2022-12-07T03:10:32;25.97;;;13.23;;
20008;SDS011;10165;42.662;23.260;2022-12-07T03:13:20;27.93;;;12.47;;
20008;SDS011;10165;42.662;23.260;2022-12-07T03:18:53;22.27;;;12.50;;
20008;SDS011;10165;42.662;23.260;2022-12-07T03:21:29;22.27;;;12.50;;
20008;SDS011;10165;42.662;23.260;2022-12-07T03:24:03;26.00;;;12.70;;
20008;SDS011;10165;42.662;23.260;2022-12-07T03:26:36;29.10;;;13.27;;
20008;SDS011;10165;42.662;23.260;2022-12-07T03:29:08;24.33;;;11.57;;
20008;SDS011;10165;42.662;23.260;2022-12-07T03:31:44;22.07;;;12.57;;
20008;SDS011;10165;42.662;23.260;2022-12-07T03:34:23;22.40;;;12.53;;
20008;SDS011;10165;42.662;23.260;2022-12-07T03:37:14;29.33;;;12.77;;
20008;SDS011;10165;42.662;23.260;2022-12-07T03:39:56;28.37;;;13.57;;
20008;SDS011;10165;42.662;23.260;2022-12-07T03:42:29;28.53;;;14.67;;
20008;SDS011;10165;42.662;23.260;2022-12-07T03:44:57;26.20;;;13.70;;
20008;SDS011;10165;42.662;23.260;2022-12-07T03:47:31;25.03;;;13.43;;
20008;SDS011;10165;42.662;23.260;2022-12-07T03:52:33;25.67;;;13.23;;
20008;SDS011;10165;42.662;23.260;2022-12-07T03:58:07;27.30;;;12.17;;
20008;SDS011;10165;42.662;23.260;2022-12-07T04:00:37;23.73;;;11.80;;
20008;SDS011;10165;42.662;23.260;2022-12-07T04:03:04;23.80;;;12.23;;
20008;SDS011;10165;42.662;23.260;2022-12-07T04:05:31;21.73;;;12.20;;
20008;SDS011;10165;42.662;23.260;2022-12-07T04:07:57;30.40;;;12.63;;
20008;SDS011;10165;42.662;23.260;2022-12-07T04:10:24;23.07;;;12.57;;
20008;SDS011;10165;42.662;23.260;2022-12-07T04:12:51;21.50;;;11.90;;
20008;SDS011;10165;42.662;23.260;2022-12-07T04:15:17;26.70;;;13.90;;
20008;SDS011;10165;42.662;23.260;2022-12-07T04:17:44;25.70;;;12.93;;
20008;SDS011;10165;42.662;23.260;2022-12-07T04:20:11;31.23;;;12.60;;
20008;SDS011;10165;42.662;23.260;2022-12-07T04:22:38;21.60;;;11.47;;
20008;SDS011;10165;42.662;23.260;2022-12-07T04:25:05;19.23;;;11.43;;
20008;SDS011;10165;42.662;23.260;2022-12-07T04:27:32;24.67;;;12.80;;
20008;SDS011;10165;42.662;23.260;2022-12-07T04:29:58;26.57;;;14.20;;
20008;SDS011;10165;42.662;23.260;2022-12-07T04:32:26;29.13;;;13.90;;
20008;SDS011;10165;42.662;23.260;2022-12-07T04:34:52;22.73;;;12.67;;
20008;SDS011;10165;42.662;23.260;2022-12-07T04:37:21;27.07;;;12.60;;
20008;SDS011;10165;42.662;23.260;2022-12-07T04:39:48;28.10;;;12.87;;
20008;SDS011;10165;42.662;23.260;2022-12-07T04:42:15;23.90;;;14.07;;
20008;SDS011;10165;42.662;23.260;2022-12-07T04:44:41;21.53;;;11.23;;
20008;SDS011;10165;42.662;23.260;2022-12-07T04:47:08;22.50;;;11.77;;
20008;SDS011;10165;42.662;23.260;2022-12-07T04:49:35;21.83;;;12.97;;
20008;SDS011;10165;42.662;23.260;2022-12-07T04:52:01;18.83;;;11.23;;
20008;SDS011;10165;42.662;23.260;2022-12-07T04:54:28;19.53;;;11.30;;
20008;SDS011;10165;42.662;23.260;2022-12-07T04:56:55;20.27;;;11.37;;
20008;SDS011;10165;42.662;23.260;2022-12-07T04:59:22;30.30;;;12.53;;
20008;SDS011;10165;42.662;23.260;2022-12-07T05:01:48;20.90;;;10.83;;
20008;SDS011;10165;42.662;23.260;2022-12-07T05:04:15;23.73;;;11.53;;
20008;SDS011;10165;42.662;23.260;2022-12-07T05:06:43;20.73;;;11.57;;
20008;SDS011;10165;42.662;23.260;2022-12-07T05:09:11;19.07;;;10.13;;
20008;SDS011;10165;42.662;23.260;2022-12-07T05:11:38;20.17;;;10.50;;
20008;SDS011;10165;42.662;23.260;2022-12-07T05:14:06;21.57;;;11.73;;
20008;SDS011;10165;42.662;23.260;2022-12-07T05:16:43;17.80;;;11.03;;
20008;SDS011;10165;42.662;23.260;2022-12-07T05:19:11;23.17;;;13.20;;
20008;SDS011;10165;42.662;23.260;2022-12-07T05:21:38;20.67;;;10.10;;
20008;SDS011;10165;42.662;23.260;2022-12-07T05:24:06;27.37;;;12.70;;
20008;SDS011;10165;42.662;23.260;2022-12-07T05:26:34;23.07;;;10.83;;
20008;SDS011;10165;42.662;23.260;2022-12-07T05:29:01;22.70;;;12.23;;
20008;SDS011;10165;42.662;23.260;2022-12-07T05:31:27;22.17;;;10.77;;
20008;SDS011;10165;42.662;23.260;2022-12-07T05:33:54;20.53;;;10.73;;
20008;SDS011;10165;42.662;23.260;2022-12-07T05:36:22;23.50;;;11.87;;
20008;SDS011;10165;42.662;23.260;2022-12-07T05:38:49;23.60;;;11.33;;
20008;SDS011;10165;42.662;23.260;2022-12-07T05:41:16;23.83;;;11.17;;
20008;SDS011;10165;42.662;23.260;2022-12-07T05:44:03;17.93;;;10.43;;
20008;SDS011;10165;42.662;23.260;2022-12-07T05:46:30;21.93;;;12.47;;
20008;SDS011;10165;42.662;23.260;2022-12-07T05:48:57;19.87;;;10.77;;
20008;SDS011;10165;42.662;23.260;2022-12-07T05:51:24;19.80;;;12.87;;
20008;SDS011;10165;42.662;23.260;2022-12-07T05:53:50;24.10;;;12.00;;
20008;SDS011;10165;42.662;23.260;2022-12-07T05:56:17;20.67;;;10.20;;
20008;SDS011;10165;42.662;23.260;2022-12-07T05:58:44;22.60;;;10.63;;
20008;SDS011;10165;42.662;23.260;2022-12-07T06:01:29;23.83;;;12.10;;
20008;SDS011;10165;42.662;23.260;2022-12-07T06:03:56;20.90;;;11.67;;
20008;SDS011;10165;42.662;23.260;2022-12-07T06:06:23;27.00;;;12.43;;
20008;SDS011;10165;42.662;23.260;2022-12-07T06:08:49;23.47;;;11.77;;
20008;SDS011;10165;42.662;23.260;2022-12-07T06:11:17;24.47;;;10.67;;
20008;SDS011;10165;42.662;23.260;2022-12-07T06:14:02;34.10;;;12.53;;
20008;SDS011;10165;42.662;23.260;2022-12-07T06:16:28;19.40;;;10.77;;
20008;SDS011;10165;42.662;23.260;2022-12-07T06:18:55;29.53;;;14.67;;
20008;SDS011;10165;42.662;23.260;2022-12-07T06:21:22;26.83;;;13.67;;
20008;SDS011;10165;42.662;23.260;2022-12-07T06:23:49;25.53;;;15.37;;
20008;SDS011;10165;42.662;23.260;2022-12-07T06:26:15;22.67;;;13.57;;
20008;SDS011;10165;42.662;23.260;2022-12-07T06:28:42;38.50;;;12.13;;
20008;SDS011;10165;42.662;23.260;2022-12-07T06:31:09;23.70;;;12.07;;
20008;SDS011;10165;42.662;23.260;2022-12-07T06:33:39;27.50;;;13.30;;
20008;SDS011;10165;42.662;23.260;2022-12-07T06:36:06;24.90;;;13.10;;
20008;SDS011;10165;42.662;23.260;2022-12-07T06:38:33;26.73;;;13.10;;
20008;SDS011;10165;42.662;23.260;2022-12-07T06:41:00;32.83;;;14.23;;
20008;SDS011;10165;42.662;23.260;2022-12-07T06:43:28;26.57;;;13.87;;
20008;SDS011;10165;42.662;23.260;2022-12-07T06:45:56;24.70;;;13.77;;
20008;SDS011;10165;42.662;23.260;2022-12-07T06:48:22;27.27;;;13.90;;
20008;SDS011;10165;42.662;23.260;2022-12-07T06:50:49;24.63;;;13.47;;
20008;SDS011;10165;42.662;23.260;2022-12-07T06:53:20;28.83;;;13.50;;
20008;SDS011;10165;42.662;23.260;2022-12-07T06:55:47;25.10;;;14.60;;
20008;SDS011;10165;42.662;23.260;2022-12-07T06:58:14;28.60;;;14.07;;
20008;SDS011;10165;42.662;23.260;2022-12-07T07:00:41;31.07;;;14.20;;
20008;SDS011;10165;42.662;23.260;2022-12-07T07:03:07;26.63;;;14.20;;
20008;SDS011;10165;42.662;23.260;2022-12-07T07:05:34;28.93;;;14.37;;
20008;SDS011;10165;42.662;23.260;2022-12-07T07:08:01;35.03;;;14.10;;
20008;SDS011;10165;42.662;23.260;2022-12-07T07:10:48;30.73;;;15.73;;
20008;SDS011;10165;42.662;23.260;2022-12-07T07:13:15;36.53;;;18.07;;
20008;SDS011;10165;42.662;23.260;2022-12-07T07:15:42;30.33;;;14.93;;
20008;SDS011;10165;42.662;23.260;2022-12-07T07:18:09;31.10;;;15.20;;
20008;SDS011;10165;42.662;23.260;2022-12-07T07:20:36;26.63;;;14.03;;
20008;SDS011;10165;42.662;23.260;2022-12-07T07:23:03;24.57;;;13.80;;
20008;SDS011;10165;42.662;23.260;2022-12-07T07:25:30;28.03;;;14.10;;
20008;SDS011;10165;42.662;23.260;2022-12-07T07:27:57;29.43;;;14.00;;
20008;SDS011;10165;42.662;23.260;2022-12-07T07:30:24;27.83;;;12.10;;
20008;SDS011;10165;42.662;23.260;2022-12-07T07:32:55;31.30;;;14.43;;
20008;SDS011;10165;42.662;23.260;2022-12-07T07:35:26;30.83;;;14.63;;
20008;SDS011;10165;42.662;23.260;2022-12-07T07:37:54;35.57;;;15.67;;
20008;SDS011;10165;42.662;23.260;2022-12-07T07:40:21;26.30;;;13.63;;
20008;SDS011;10165;42.662;23.260;2022-12-07T07:42:49;28.40;;;13.73;;
20008;SDS011;10165;42.662;23.260;2022-12-07T07:45:16;33.93;;;14.13;;
20008;SDS011;10165;42.662;23.260;2022-12-07T07:47:44;30.50;;;14.67;;
20008;SDS011;10165;42.662;23.260;2022-12-07T07:50:11;34.83;;;17.40;;
20008;SDS011;10165;42.662;23.260;2022-12-07T07:52:37;29.90;;;13.83;;
20008;SDS011;10165;42.662;23.260;2022-12-07T07:55:04;28.70;;;14.43;;
20008;SDS011;10165;42.662;23.260;2022-12-07T07:57:34;33.67;;;15.20;;
20008;SDS011;10165;42.662;23.260;2022-12-07T08:00:04;37.57;;;15.33;;
20008;SDS011;10165;42.662;23.260;2022-12-07T08:02:32;32.93;;;14.63;;
20008;SDS011;10165;42.662;23.260;2022-12-07T08:04:58;31.57;;;15.17;;
20008;SDS011;10165;42.662;23.260;2022-12-07T08:07:26;28.90;;;14.13;;
20008;SDS011;10165;42.662;23.260;2022-12-07T08:09:54;40.77;;;16.10;;
20008;SDS011;10165;42.662;23.260;2022-12-07T08:12:20;32.53;;;14.97;;
20008;SDS011;10165;42.662;23.260;2022-12-07T08:14:47;34.37;;;15.43;;
20008;SDS011;10165;42.662;23.260;2022-12-07T08:17:14;33.93;;;15.63;;
20008;SDS011;10165;42.662;23.260;2022-12-07T08:19:40;24.97;;;14.73;;
20008;SDS011;10165;42.662;23.260;2022-12-07T08:22:07;34.30;;;16.37;;
20008;SDS011;10165;42.662;23.260;2022-12-07T08:24:34;35.23;;;14.87;;
20008;SDS011;10165;42.662;23.260;2022-12-07T08:27:02;35.80;;;15.27;;
20008;SDS011;10165;42.662;23.260;2022-12-07T08:29:29;28.67;;;14.67;;
20008;SDS011;10165;42.662;23.260;2022-12-07T08:31:56;31.93;;;14.03;;
20008;SDS011;10165;42.662;23.260;2022-12-07T08:34:22;37.70;;;17.63;;
20008;SDS011;10165;42.662;23.260;2022-12-07T08:36:49;24.77;;;13.77;;
20008;SDS011;10165;42.662;23.260;2022-12-07T08:39:16;32.93;;;16.30;;
20008;SDS011;10165;42.662;23.260;2022-12-07T08:41:58;31.17;;;15.33;;
20008;SDS011;10165;42.662;23.260;2022-12-07T08:44:25;29.53;;;14.90;;
20008;SDS011;10165;42.662;23.260;2022-12-07T08:46:58;28.03;;;15.83;;
20008;SDS011;10165;42.662;23.260;2022-12-07T08:49:33;38.87;;;17.90;;
20008;SDS011;10165;42.662;23.260;2022-12-07T08:52:05;40.73;;;19.43;;
20008;SDS011;10165;42.662;23.260;2022-12-07T08:54:32;39.50;;;16.83;;
20008;SDS011;10165;42.662;23.260;2022-12-07T08:57:01;33.90;;;15.87;;
20008;SDS011;10165;42.662;23.260;2022-12-07T08:59:29;37.33;;;15.47;;
20008;SDS011;10165;42.662;23.260;2022-12-07T09:01:56;37.07;;;17.80;;
20008;SDS011;10165;42.662;23.260;2022-12-07T09:04:23;36.30;;;14.60;;
20008;SDS011;10165;42.662;23.260;2022-12-07T09:06:49;35.67;;;16.10;;
20008;SDS011;10165;42.662;23.260;2022-12-07T09:09:16;29.53;;;15.70;;
20008;SDS011;10165;42.662;23.260;2022-12-07T09:11:43;30.33;;;14.20;;
20008;SDS011;10165;42.662;23.260;2022-12-07T09:14:11;35.57;;;17.97;;
20008;SDS011;10165;42.662;23.260;2022-12-07T09:16:38;36.47;;;17.13;;
20008;SDS011;10165;42.662;23.260;2022-12-07T09:19:06;36.37;;;15.43;;
20008;SDS011;10165;42.662;23.260;2022-12-07T09:21:33;33.90;;;15.50;;
20008;SDS011;10165;42.662;23.260;2022-12-07T09:24:00;39.40;;;17.73;;
20008;SDS011;10165;42.662;23.260;2022-12-07T09:26:27;29.20;;;15.03;;
20008;SDS011;10165;42.662;23.260;2022-12-07T09:28:53;22.73;;;13.03;;
20008;SDS011;10165;42.662;23.260;2022-12-07T09:31:20;30.77;;;13.90;;
20008;SDS011;10165;42.662;23.260;2022-12-07T09:34:07;29.03;;;14.53;;
20008;SDS011;10165;42.662;23.260;2022-12-07T09:36:34;26.40;;;12.80;;
20008;SDS011;10165;42.662;23.260;2022-12-07T09:39:01;31.53;;;15.03;;
20008;SDS011;10165;42.662;23.260;2022-12-07T09:41:29;34.70;;;17.33;;
20008;SDS011;10165;42.662;23.260;2022-12-07T09:44:20;27.37;;;13.40;;
20008;SDS011;10165;42.662;23.260;2022-12-07T09:46:49;36.33;;;17.87;;
20008;SDS011;10165;42.662;23.260;2022-12-07T09:49:20;35.70;;;15.47;;
20008;SDS011;10165;42.662;23.260;2022-12-07T09:54:51;27.43;;;13.37;;
20008;SDS011;10165;42.662;23.260;2022-12-07T09:57:20;40.87;;;17.50;;
20008;SDS011;10165;42.662;23.260;2022-12-07T09:59:57;39.13;;;17.03;;
20008;SDS011;10165;42.662;23.260;2022-12-07T10:02:33;29.53;;;13.53;;
20008;SDS011;10165;42.662;23.260;2022-12-07T10:05:04;24.90;;;12.63;;
20008;SDS011;10165;42.662;23.260;2022-12-07T10:07:32;25.50;;;11.63;;
20008;SDS011;10165;42.662;23.260;2022-12-07T10:09:59;58.23;;;24.10;;
20008;SDS011;10165;42.662;23.260;2022-12-07T10:12:29;39.70;;;18.03;;
20008;SDS011;10165;42.662;23.260;2022-12-07T10:14:57;36.03;;;16.70;;
20008;SDS011;10165;42.662;23.260;2022-12-07T10:17:47;36.37;;;17.70;;
20008;SDS011;10165;42.662;23.260;2022-12-07T10:20:25;32.37;;;15.00;;
20008;SDS011;10165;42.662;23.260;2022-12-07T10:23:00;30.80;;;13.77;;
20008;SDS011;10165;42.662;23.260;2022-12-07T10:25:33;29.87;;;14.30;;
20008;SDS011;10165;42.662;23.260;2022-12-07T10:28:03;23.20;;;12.43;;
20008;SDS011;10165;42.662;23.260;2022-12-07T10:33:33;22.53;;;12.23;;
20008;SDS011;10165;42.662;23.260;2022-12-07T10:38:47;41.23;;;14.53;;
20008;SDS011;10165;42.662;23.260;2022-12-07T10:41:16;28.03;;;13.80;;
20008;SDS011;10165;42.662;23.260;2022-12-07T10:43:46;29.40;;;13.07;;
20008;SDS011;10165;42.662;23.260;2022-12-07T10:46:30;37.60;;;17.53;;
20008;SDS011;10165;42.662;23.260;2022-12-07T10:52:37;38.47;;;16.00;;
20008;SDS011;10165;42.662;23.260;2022-12-07T10:58:11;36.13;;;16.00;;
20008;SDS011;10165;42.662;23.260;2022-12-07T11:14:18;22.23;;;10.97;;
20008;SDS011;10165;42.662;23.260;2022-12-07T11:16:52;38.90;;;11.83;;
20008;SDS011;10165;42.662;23.260;2022-12-07T11:19:30;24.83;;;11.80;;
20008;SDS011;10165;42.662;23.260;2022-12-07T11:22:16;22.13;;;11.40;;
20008;SDS011;10165;42.662;23.260;2022-12-07T11:27:52;24.30;;;9.37;;
20008;SDS011;10165;42.662;23.260;2022-12-07T11:30:28;19.93;;;9.57;;
20008;SDS011;10165;42.662;23.260;2022-12-07T11:35:46;23.80;;;11.30;;
20008;SDS011;10165;42.662;23.260;2022-12-07T11:41:10;29.23;;;12.03;;
20008;SDS011;10165;42.662;23.260;2022-12-07T11:43:43;21.40;;;10.93;;
20008;SDS011;10165;42.662;23.260;2022-12-07T11:46:19;25.60;;;10.27;;
20008;SDS011;10165;42.662;23.260;2022-12-07T11:51:40;21.30;;;8.93;;
20008;SDS011;10165;42.662;23.260;2022-12-07T11:54:12;19.83;;;10.20;;
20008;SDS011;10165;42.662;23.260;2022-12-07T11:56:44;25.77;;;10.83;;
20008;SDS011;10165;42.662;23.260;2022-12-07T11:59:18;27.13;;;9.53;;
20008;SDS011;10165;42.662;23.260;2022-12-07T12:04:27;18.07;;;8.87;;
20008;SDS011;10165;42.662;23.260;2022-12-07T12:06:58;19.30;;;8.10;;
20008;SDS011;10165;42.662;23.260;2022-12-07T12:09:59;22.07;;;9.27;;
20008;SDS011;10165;42.662;23.260;2022-12-07T12:12:48;17.77;;;8.07;;
20008;SDS011;10165;42.662;23.260;2022-12-07T12:16:17;12.83;;;6.80;;
20008;SDS011;10165;42.662;23.260;2022-12-07T12:21:38;18.13;;;8.13;;
20008;SDS011;10165;42.662;23.260;2022-12-07T12:24:16;21.10;;;8.40;;
20008;SDS011;10165;42.662;23.260;2022-12-07T12:26:52;19.97;;;9.77;;
20008;SDS011;10165;42.662;23.260;2022-12-07T12:29:27;34.53;;;12.23;;
20008;SDS011;10165;42.662;23.260;2022-12-07T12:32:06;27.17;;;10.93;;
20008;SDS011;10165;42.662;23.260;2022-12-07T12:34:41;31.00;;;12.77;;
20008;SDS011;10165;42.662;23.260;2022-12-07T12:42:55;23.53;;;10.67;;
20008;SDS011;10165;42.662;23.260;2022-12-07T12:45:29;26.20;;;11.10;;
20008;SDS011;10165;42.662;23.260;2022-12-07T12:48:01;25.87;;;11.57;;
20008;SDS011;10165;42.662;23.260;2022-12-07T12:50:35;17.80;;;9.17;;
20008;SDS011;10165;42.662;23.260;2022-12-07T12:58:34;21.90;;;11.20;;
20008;SDS011;10165;42.662;23.260;2022-12-07T13:04:02;20.93;;;10.17;;
20008;SDS011;10165;42.662;23.260;2022-12-07T13:06:41;39.03;;;14.27;;
20008;SDS011;10165;42.662;23.260;2022-12-07T13:09:17;29.23;;;13.03;;
20008;SDS011;10165;42.662;23.260;2022-12-07T13:12:12;28.43;;;10.30;;
20008;SDS011;10165;42.662;23.260;2022-12-07T13:14:57;15.90;;;8.17;;
20008;SDS011;10165;42.662;23.260;2022-12-07T13:20:05;21.53;;;9.53;;
20008;SDS011;10165;42.662;23.260;2022-12-07T13:22:41;22.47;;;9.70;;
20008;SDS011;10165;42.662;23.260;2022-12-07T13:28:15;29.10;;;12.63;;
20008;SDS011;10165;42.662;23.260;2022-12-07T13:30:50;15.43;;;8.47;;
20008;SDS011;10165;42.662;23.260;2022-12-07T13:33:27;17.03;;;9.07;;
20008;SDS011;10165;42.662;23.260;2022-12-07T13:35:55;21.10;;;10.20;;
20008;SDS011;10165;42.662;23.260;2022-12-07T13:38:29;37.33;;;12.77;;
20008;SDS011;10165;42.662;23.260;2022-12-07T13:43:52;17.80;;;9.37;;
20008;SDS011;10165;42.662;23.260;2022-12-07T13:46:27;16.73;;;9.47;;
20008;SDS011;10165;42.662;23.260;2022-12-07T13:49:21;17.30;;;9.13;;
20008;SDS011;10165;42.662;23.260;2022-12-07T13:51:50;18.73;;;9.10;;
20008;SDS011;10165;42.662;23.260;2022-12-07T13:54:18;17.90;;;9.87;;
20008;SDS011;10165;42.662;23.260;2022-12-07T13:56:47;22.30;;;10.23;;
20008;SDS011;10165;42.662;23.260;2022-12-07T13:59:19;18.17;;;9.33;;
20008;SDS011;10165;42.662;23.260;2022-12-07T14:01:49;31.07;;;10.90;;
20008;SDS011;10165;42.662;23.260;2022-12-07T14:04:18;19.67;;;9.60;;
20008;SDS011;10165;42.662;23.260;2022-12-07T14:07:19;22.07;;;9.93;;
20008;SDS011;10165;42.662;23.260;2022-12-07T14:09:56;29.13;;;9.50;;
20008;SDS011;10165;42.662;23.260;2022-12-07T14:12:28;19.03;;;8.97;;
20008;SDS011;10165;42.662;23.260;2022-12-07T14:14:56;19.23;;;9.63;;
20008;SDS011;10165;42.662;23.260;2022-12-07T14:17:25;21.67;;;9.77;;
20008;SDS011;10165;42.662;23.260;2022-12-07T14:19:54;18.13;;;8.20;;
20008;SDS011;10165;42.662;23.260;2022-12-07T14:27:39;21.63;;;8.37;;
20008;SDS011;10165;42.662;23.260;2022-12-07T14:30:19;15.87;;;8.17;;
20008;SDS011;10165;42.662;23.260;2022-12-07T14:32:46;16.27;;;8.47;;
20008;SDS011;10165;42.662;23.260;2022-12-07T14:35:17;22.63;;;9.33;;
20008;SDS011;10165;42.662;23.260;2022-12-07T14:37:45;21.63;;;9.90;;
20008;SDS011;10165;42.662;23.260;2022-12-07T14:40:15;21.00;;;10.33;;
20008;SDS011;10165;42.662;23.260;2022-12-07T14:43:08;24.90;;;11.57;;
20008;SDS011;10165;42.662;23.260;2022-12-07T14:45:37;15.63;;;10.27;;
20008;SDS011;10165;42.662;23.260;2022-12-07T14:48:06;28.47;;;10.60;;
20008;SDS011;10165;42.662;23.260;2022-12-07T14:50:56;29.97;;;11.60;;
20008;SDS011;10165;42.662;23.260;2022-12-07T14:53:48;24.90;;;12.67;;
20008;SDS011;10165;42.662;23.260;2022-12-07T14:56:22;24.00;;;10.60;;
20008;SDS011;10165;42.662;23.260;2022-12-07T14:58:50;30.50;;;11.20;;
20008;SDS011;10165;42.662;23.260;2022-12-07T15:01:16;24.73;;;11.90;;
20008;SDS011;10165;42.662;23.260;2022-12-07T15:03:43;22.30;;;11.23;;
20008;SDS011;10165;42.662;23.260;2022-12-07T15:06:10;30.97;;;11.97;;
20008;SDS011;10165;42.662;23.260;2022-12-07T15:08:40;37.00;;;10.47;;
20008;SDS011;10165;42.662;23.260;2022-12-07T15:11:10;31.77;;;10.70;;
20008;SDS011;10165;42.662;23.260;2022-12-07T15:13:39;20.17;;;10.43;;
20008;SDS011;10165;42.662;23.260;2022-12-07T15:16:24;20.07;;;11.10;;
20008;SDS011;10165;42.662;23.260;2022-12-07T15:18:51;35.33;;;12.30;;
20008;SDS011;10165;42.662;23.260;2022-12-07T15:21:39;24.10;;;12.47;;
20008;SDS011;10165;42.662;23.260;2022-12-07T15:24:07;37.27;;;14.33;;
20008;SDS011;10165;42.662;23.260;2022-12-07T15:26:38;30.27;;;12.93;;
20008;SDS011;10165;42.662;23.260;2022-12-07T15:29:06;28.57;;;11.60;;
20008;SDS011;10165;42.662;23.260;2022-12-07T15:31:33;29.33;;;12.57;;
20008;SDS011;10165;42.662;23.260;2022-12-07T15:34:20;43.00;;;13.70;;
20008;SDS011;10165;42.662;23.260;2022-12-07T15:36:47;36.67;;;13.17;;
20008;SDS011;10165;42.662;23.260;2022-12-07T15:39:13;24.80;;;9.63;;
20008;SDS011;10165;42.662;23.260;2022-12-07T15:41:40;35.30;;;10.43;;
20008;SDS011;10165;42.662;23.260;2022-12-07T15:44:09;25.60;;;10.87;;
20008;SDS011;10165;42.662;23.260;2022-12-07T15:46:57;16.80;;;10.27;;
20008;SDS011;10165;42.662;23.260;2022-12-07T15:49:24;21.03;;;9.77;;
20008;SDS011;10165;42.662;23.260;2022-12-07T15:51:51;28.83;;;10.63;;
20008;SDS011;10165;42.662;23.260;2022-12-07T15:54:22;15.53;;;9.40;;
20008;SDS011;10165;42.662;23.260;2022-12-07T15:56:50;12.47;;;7.53;;
20008;SDS011;10165;42.662;23.260;2022-12-07T15:59:17;20.17;;;8.50;;
20008;SDS011;10165;42.662;23.260;2022-12-07T16:01:44;14.70;;;9.00;;
20008;SDS011;10165;42.662;23.260;2022-12-07T16:04:11;18.00;;;9.80;;
20008;SDS011;10165;42.662;23.260;2022-12-07T16:06:38;24.20;;;10.00;;
20008;SDS011;10165;42.662;23.260;2022-12-07T16:09:05;17.63;;;8.53;;
20008;SDS011;10165;42.662;23.260;2022-12-07T16:11:33;12.60;;;7.70;;
20008;SDS011;10165;42.662;23.260;2022-12-07T16:14:00;21.87;;;10.70;;
20008;SDS011;10165;42.662;23.260;2022-12-07T16:16:27;23.87;;;9.50;;
20008;SDS011;10165;42.662;23.260;2022-12-07T16:18:54;17.60;;;8.17;;
20008;SDS011;10165;42.662;23.260;2022-12-07T16:21:21;15.77;;;8.73;;